Terminal Aerodrome Forecast
Issued by NWS

Home | Current Version | Previous Version | Text Only | Print | Product List | Glossary Off
Versions: 1 2 3 4 5 6 7 8 9 10 11 12 13 14 15 16 17 18 19 20 21

000
FTUS43 KGRB 171800 AAA
TAFATW
TAF AMD
KATW 171852Z 1719/1818 26008KT P6SM SCT045 SCT200
     FM180100 04010G18KT P6SM BKN070
     FM180400 03010G16KT P6SM SCT015 BKN030
     FM181000 04009KT P6SM SCT020
     FM181600 06007KT P6SM SCT025=

USA.gov is the U.S. government's official web portal to all federal, state and local government web resources and services.